Time;durP1;ratioP1;P1;durP2;ratioP2;P2;SDS_P1;SDS_P2;PMS_P1;PMS_P2;Temp;Humidity;BMP_temperature;BMP_pressure;BME280_temperature;BME280_humidity;BME280_pressure;Samples;Min_cycle;Max_cycle;Signal;HPM_P1;HPM_P2
2023/11/23 00:00:38;;;;;;;;;6.33;6.00;;;;;22.81;44.03;102763.94;4976542;28;45727;-73
2023/11/23 00:03:03;;;;;;;;;7.00;5.33;;;;;22.89;43.93;102773.00;4976614;28;45298;-73
2023/11/23 00:05:28;;;;;;;;;8.00;5.33;;;;;22.81;43.88;102760.44;4975933;28;46772;-73
2023/11/23 00:07:55;;;;;;;;;6.33;6.00;;;;;22.80;44.22;102748.13;4976100;28;49743;-72
2023/11/23 00:10:20;;;;;;;;;8.00;6.00;;;;;22.84;43.99;102758.34;4976413;28;45353;-72
2023/11/23 00:12:46;;;;;;;;;7.67;7.67;;;;;22.85;43.78;102765.31;4976353;28;45378;-72
2023/11/23 00:15:11;;;;;;;;;7.00;7.00;;;;;22.83;43.66;102753.16;4975958;28;45450;-73
2023/11/23 00:17:38;;;;;;;;;6.00;6.00;;;;;22.83;43.61;102748.69;4979489;28;45464;-73
2023/11/23 00:20:09;;;;;;;;;6.00;6.00;;;;;22.70;43.78;102726.88;4979325;28;45350;-72
2023/11/23 00:22:34;;;;;;;;;5.00;4.00;;;;;22.85;43.94;102749.38;4994512;28;45541;-72
2023/11/23 00:25:00;;;;;;;;;8.00;6.67;;;;;22.85;44.31;102744.06;4979430;28;46101;-73
2023/11/23 00:27:25;;;;;;;;;6.33;6.33;;;;;22.84;44.06;102734.47;4979642;28;45369;-73
2023/11/23 00:29:51;;;;;;;;;7.67;7.00;;;;;22.84;44.17;102744.22;4979638;28;45171;-72
2023/11/23 00:32:17;;;;;;;;;8.00;6.33;;;;;22.77;43.97;102725.34;4979666;28;45177;-73
2023/11/23 00:34:42;;;;;;;;;8.00;7.00;;;;;22.78;44.17;102728.84;4978952;28;46192;-73
2023/11/23 00:37:07;;;;;;;;;7.67;4.67;;;;;22.82;44.33;102725.78;4979009;28;50508;-73
2023/11/23 00:39:33;;;;;;;;;7.33;5.33;;;;;22.82;43.81;102731.09;4979517;28;45449;-73
2023/11/23 00:41:59;;;;;;;;;6.33;5.00;;;;;22.82;43.75;102736.38;4977967;28;45294;-73
2023/11/23 00:44:24;;;;;;;;;6.00;6.00;;;;;22.79;44.08;102734.03;4979394;28;45349;-73
2023/11/23 00:46:50;;;;;;;;;8.67;6.00;;;;;22.71;44.04;102715.31;4978575;28;61434;-73
2023/11/23 00:49:16;;;;;;;;;10.00;7.00;;;;;22.81;44.01;102726.78;4978924;28;45466;-72
2023/11/23 00:51:42;;;;;;;;;5.67;5.33;;;;;22.51;43.58;102686.91;4979357;28;45516;-73
2023/11/23 00:54:07;;;;;;;;;5.67;5.33;;;;;22.77;43.84;102724.53;4979140;28;47005;-73
2023/11/23 00:56:33;;;;;;;;;5.67;5.67;;;;;22.73;43.70;102719.50;4978922;28;45295;-72
2023/11/23 00:58:58;;;;;;;;;7.33;6.33;;;;;22.71;43.68;102715.31;4979250;28;45309;-73
2023/11/23 01:01:23;;;;;;;;;8.00;8.00;;;;;22.82;44.10;102727.63;4979197;28;45353;-72
2023/11/23 01:03:48;;;;;;;;;6.00;5.00;;;;;22.81;44.15;102726.78;4978374;28;54074;-72
2023/11/23 01:06:14;;;;;;;;;5.33;5.33;;;;;22.82;44.17;102730.25;4978821;28;48985;-72
2023/11/23 01:08:39;;;;;;;;;9.00;5.67;;;;;22.82;43.77;102725.78;4979117;28;45200;-72
2023/11/23 01:11:05;;;;;;;;;5.33;4.33;;;;;22.80;43.96;102716.28;4979137;28;45256;-73
2023/11/23 01:13:30;;;;;;;;;8.33;7.33;;;;;22.74;43.74;102715.84;4978736;28;46344;-73
2023/11/23 01:15:56;;;;;;;;;6.00;6.00;;;;;22.57;43.41;102688.19;4993916;28;45628;-72
2023/11/23 01:18:22;;;;;;;;;6.00;5.00;;;;;22.82;43.81;102722.31;4978543;28;45437;-72
2023/11/23 01:20:48;;;;;;;;;9.00;7.67;;;;;22.78;43.76;102715.59;4978677;28;45469;-72
2023/11/23 01:23:13;;;;;;;;;7.67;7.67;;;;;22.74;44.14;102704.44;4978543;28;47353;-73
2023/11/23 01:25:39;;;;;;;;;5.00;5.00;;;;;22.81;44.12;102718.81;4978772;28;45417;-72
2023/11/23 01:28:04;;;;;;;;;6.33;5.67;;;;;22.71;44.19;102700.25;4977956;28;45462;-73
2023/11/23 01:30:29;;;;;;;;;5.00;5.00;;;;;22.81;44.40;102713.50;4978734;28;45416;-72
2023/11/23 01:32:56;;;;;;;;;6.00;6.00;;;;;22.49;44.03;102674.78;4978055;28;50348;-72
2023/11/23 01:35:21;;;;;;;;;6.33;4.33;;;;;22.68;44.27;102703.13;4978339;28;45409;-72
2023/11/23 01:37:47;;;;;;;;;6.00;6.00;;;;;22.81;44.31;102723.28;4978553;28;45335;-72
2023/11/23 01:40:12;;;;;;;;;6.67;6.00;;;;;22.68;43.76;102712.91;4978544;28;45572;-72
2023/11/23 01:42:38;;;;;;;;;5.00;5.00;;;;;22.70;43.97;102714.47;4978347;28;45367;-71
2023/11/23 01:45:04;;;;;;;;;5.00;5.00;;;;;22.77;43.73;102728.00;4978507;28;45385;-73
2023/11/23 01:47:31;;;;;;;;;7.67;7.67;;;;;22.74;44.25;102725.66;4978104;28;45496;-72
2023/11/23 01:50:02;;;;;;;;;7.00;5.33;;;;;22.79;43.97;102736.69;4978360;28;45304;-72
2023/11/23 01:52:28;;;;;;;;;5.00;4.00;;;;;22.79;44.32;102731.38;4978330;28;47062;-72
2023/11/23 01:54:54;;;;;;;;;5.33;5.00;;;;;22.78;44.10;102734.16;4978115;28;45312;-72
2023/11/23 01:57:20;;;;;;;;;6.67;5.33;;;;;22.80;44.19;102730.38;4978476;28;45388;-72
2023/11/23 01:59:45;;;;;;;;;6.00;6.00;;;;;22.78;43.88;102726.19;4978136;28;45448;-73
2023/11/23 02:02:11;;;;;;;;;5.67;5.67;;;;;22.80;44.22;102737.50;4977586;28;50556;-73
2023/11/23 02:04:36;;;;;;;;;5.33;5.33;;;;;22.79;44.37;102733.19;4993299;28;45409;-72
2023/11/23 02:07:02;;;;;;;;;4.67;4.67;;;;;22.79;44.36;102734.03;4978228;28;45336;-70
2023/11/23 02:09:28;;;;;;;;;4.67;4.67;;;;;22.78;44.19;102737.66;4978215;28;45437;-73
2023/11/23 02:11:54;;;;;;;;;6.00;6.00;;;;;22.78;43.79;102731.50;4977942;28;46096;-72
2023/11/23 02:14:20;;;;;;;;;7.33;6.67;;;;;22.76;43.77;102721.03;4977762;28;45340;-72
2023/11/23 02:16:46;;;;;;;;;7.00;6.33;;;;;22.77;44.01;102725.34;4977571;28;45585;-72
2023/11/23 02:19:11;;;;;;;;;5.00;5.00;;;;;22.71;44.37;102717.97;4977981;28;45358;-72
2023/11/23 02:21:36;;;;;;;;;5.00;5.00;;;;;22.77;44.31;102730.66;4977479;28;47321;-73
2023/11/23 02:24:09;;;;;;;;;4.00;4.00;;;;;22.76;43.81;102731.66;4977609;28;45824;-72
2023/11/23 02:26:35;;;;;;;;;6.00;6.00;;;;;22.66;44.40;102713.06;4977871;28;45368;-73
2023/11/23 02:29:00;;;;;;;;;7.33;7.33;;;;;22.76;43.93;102731.66;4977739;28;45330;-73
2023/11/23 02:31:25;;;;;;;;;7.00;7.00;;;;;22.76;43.83;102731.66;4976909;28;57324;-71
2023/11/23 02:33:51;;;;;;;;;6.00;5.00;;;;;22.68;44.38;102718.22;4977421;28;45563;-73
2023/11/23 02:36:16;;;;;;;;;6.67;5.00;;;;;22.74;44.34;102738.94;4977617;28;45283;-73
2023/11/23 02:38:42;;;;;;;;;6.33;6.00;;;;;22.77;44.50;102751.88;4977662;28;45349;-73
2023/11/23 02:41:07;;;;;;;;;5.00;4.33;;;;;22.74;44.38;102739.75;4977545;28;45399;-72
2023/11/23 02:43:32;;;;;;;;;6.33;5.00;;;;;22.76;44.30;102744.94;4977378;28;45346;-72
2023/11/23 02:45:58;;;;;;;;;6.00;6.00;;;;;22.73;43.83;102737.25;4977117;28;45365;-72
2023/11/23 02:48:23;;;;;;;;;6.33;5.00;;;;;22.79;44.03;102735.84;4977625;28;45285;-73
2023/11/23 02:50:50;;;;;;;;;5.00;5.00;;;;;22.76;44.16;102734.31;4977787;28;46278;-72
2023/11/23 02:53:28;;;;;;;;;7.67;5.00;;;;;22.79;44.26;102735.84;4977385;28;45317;-72
2023/11/23 02:55:54;;;;;;;;;7.00;6.00;;;;;22.72;44.10;102720.47;4977240;28;45356;-73
2023/11/23 02:58:20;;;;;;;;;5.00;5.00;;;;;22.66;43.76;102717.50;4977410;28;45447;-72
2023/11/23 03:00:45;;;;;;;;;6.00;4.00;;;;;22.76;43.97;102731.66;4976642;28;47290;-72
2023/11/23 03:03:12;;;;;;;;;5.33;5.00;;;;;22.80;44.11;102735.69;4977229;28;45371;-73
2023/11/23 03:05:38;;;;;;;;;6.00;5.33;;;;;22.79;43.75;102734.03;4977474;28;45411;-73
2023/11/23 03:08:04;;;;;;;;;4.33;3.67;;;;;22.81;43.95;102747.16;4977058;28;45303;-71
2023/11/23 03:10:29;;;;;;;;;4.00;4.00;;;;;22.80;43.97;102740.16;4977093;28;45222;-73
2023/11/23 03:12:54;;;;;;;;;5.67;5.67;;;;;22.80;44.37;102743.66;4976929;28;50516;-73
2023/11/23 03:15:20;;;;;;;;;9.00;6.67;;;;;22.73;43.86;102729.28;4976463;28;45357;-73
2023/11/23 03:17:45;;;;;;;;;4.67;3.67;;;;;22.80;44.22;102743.66;4977041;28;45474;-73
2023/11/23 03:20:10;;;;;;;;;4.00;4.00;;;;;22.80;44.26;102740.16;4976333;28;63823;-73
2023/11/23 03:22:36;;;;;;;;;7.33;4.33;;;;;22.72;43.79;102733.75;4976867;28;45424;-72
2023/11/23 03:25:01;;;;;;;;;6.00;6.00;;;;;22.79;44.19;102738.50;4977052;28;45472;-73
2023/11/23 03:27:26;;;;;;;;;4.00;4.00;;;;;22.76;44.31;102734.31;4976773;28;46675;-72
2023/11/23 03:29:52;;;;;;;;;5.00;5.00;;;;;22.79;44.66;102743.81;4976337;28;45587;-73
2023/11/23 03:32:17;;;;;;;;;5.00;4.00;;;;;22.78;44.11;102740.31;4976901;28;45414;-72
2023/11/23 03:34:43;;;;;;;;;4.33;4.33;;;;;22.76;44.41;102739.63;4976733;28;45477;-72
2023/11/23 03:37:08;;;;;;;;;5.33;5.00;;;;;22.77;44.46;102740.47;4976818;28;45377;-70
2023/11/23 03:39:33;;;;;;;;;6.00;5.00;;;;;22.76;44.28;102742.28;4976524;28;46782;-72
2023/11/23 03:42:00;;;;;;;;;4.00;3.33;;;;;22.57;44.71;102714.72;4976525;28;45508;-72
2023/11/23 03:44:26;;;;;;;;;5.33;5.00;;;;;22.72;44.19;102735.53;4976549;28;45396;-73
2023/11/23 03:46:52;;;;;;;;;5.67;5.00;;;;;22.77;44.37;102737.81;4976461;28;45297;-72
2023/11/23 03:49:18;;;;;;;;;4.33;3.33;;;;;22.77;44.36;102737.81;4976581;28;45366;-73
2023/11/23 03:51:43;;;;;;;;;5.00;5.00;;;;;22.74;44.67;102733.63;4975960;28;45385;-72
2023/11/23 03:54:09;;;;;;;;;5.00;5.00;;;;;22.77;44.57;102727.19;4976689;28;45357;-73
2023/11/23 03:56:37;;;;;;;;;5.67;4.33;;;;;22.77;44.67;102721.88;4976637;28;45322;-72
2023/11/23 03:59:03;;;;;;;;;5.33;4.67;;;;;22.66;44.07;102709.56;4975892;28;46343;-72
2023/11/23 04:01:28;;;;;;;;;5.67;5.67;;;;;22.73;44.61;102719.50;4976324;28;45179;-73
2023/11/23 04:03:54;;;;;;;;;4.67;4.00;;;;;22.77;44.04;102725.34;4975978;28;53328;-72
2023/11/23 04:06:19;;;;;;;;;7.67;5.00;;;;;22.77;44.14;102725.34;4976344;28;45401;-72
2023/11/23 04:08:44;;;;;;;;;5.00;5.00;;;;;22.76;44.08;102723.69;4976340;28;46379;-72
2023/11/23 04:11:10;;;;;;;;;5.33;5.00;;;;;22.70;44.29;102714.47;4976306;28;45352;-72
2023/11/23 04:13:35;;;;;;;;;5.67;5.33;;;;;22.77;44.66;102727.19;4976010;28;45328;-72
2023/11/23 04:16:00;;;;;;;;;3.00;3.00;;;;;22.76;44.37;102722.84;4991185;28;45496;-72
2023/11/23 04:18:26;;;;;;;;;6.00;5.00;;;;;22.52;44.61;102687.75;4975714;28;48617;-72
2023/11/23 04:20:51;;;;;;;;;5.00;4.00;;;;;22.64;44.47;102707.03;4976096;28;45405;-72
2023/11/23 04:23:16;;;;;;;;;9.00;6.67;;;;;22.76;44.55;102721.03;4974489;28;52752;-72
2023/11/23 04:25:42;;;;;;;;;6.67;4.33;;;;;22.43;44.73;102670.03;4976299;28;45353;-73
2023/11/23 04:28:07;;;;;;;;;6.00;5.00;;;;;22.73;44.56;102719.50;4975786;28;46098;-73
2023/11/23 04:30:32;;;;;;;;;6.00;4.00;;;;;22.72;44.44;102720.47;4975985;28;45428;-73
2023/11/23 04:32:58;;;;;;;;;4.00;4.00;;;;;22.75;44.12;102732.63;4976056;28;45366;-72
2023/11/23 04:35:23;;;;;;;;;5.33;5.33;;;;;22.73;44.77;102730.13;4975497;28;52573;-72
2023/11/23 04:37:48;;;;;;;;;4.67;3.00;;;;;22.75;44.37;102732.63;4975718;28;46991;-73
2023/11/23 04:40:14;;;;;;;;;4.00;4.00;;;;;22.74;44.56;102738.94;4976089;28;45477;-73
2023/11/23 04:42:40;;;;;;;;;7.33;4.67;;;;;22.74;44.75;102726.47;4975679;28;45287;-73
2023/11/23 04:45:07;;;;;;;;;6.33;6.00;;;;;22.77;44.61;102737.81;4975984;28;45471;-73
2023/11/23 04:47:33;;;;;;;;;5.00;5.00;;;;;22.66;44.41;102715.72;4975734;28;46793;-72
2023/11/23 04:49:58;;;;;;;;;4.00;4.00;;;;;22.75;44.69;102732.63;4975742;28;45411;-72
2023/11/23 04:52:23;;;;;;;;;6.00;4.00;;;;;22.72;44.41;102724.94;4975658;28;52174;-73
2023/11/23 04:54:48;;;;;;;;;6.33;4.33;;;;;22.74;44.30;102730.97;4976207;28;45398;-73
2023/11/23 04:57:14;;;;;;;;;6.33;5.00;;;;;22.76;44.31;102734.31;4975556;28;47323;-73
2023/11/23 04:59:39;;;;;;;;;6.33;4.67;;;;;22.75;44.30;102735.28;4975885;28;45427;-73
2023/11/23 05:02:04;;;;;;;;;5.00;4.00;;;;;22.76;44.16;102731.66;4975990;28;45448;-72
2023/11/23 05:04:31;;;;;;;;;6.00;4.67;;;;;22.75;44.79;102735.28;4978950;28;45610;-73
2023/11/23 05:06:56;;;;;;;;;4.00;4.00;;;;;22.76;44.24;102736.97;4979141;28;46063;-72
2023/11/23 05:09:22;;;;;;;;;5.00;5.00;;;;;22.74;44.38;102728.31;4977814;28;45407;-73
2023/11/23 05:11:48;;;;;;;;;5.67;5.00;;;;;22.72;44.20;102724.94;4978904;28;45329;-73
2023/11/23 05:14:13;;;;;;;;;5.00;4.00;;;;;22.62;44.56;102707.19;4979091;28;45349;-72
2023/11/23 05:16:39;;;;;;;;;3.00;3.00;;;;;22.68;44.79;102707.59;4978774;28;46077;-72
2023/11/23 05:19:04;;;;;;;;;5.67;4.00;;;;;22.73;44.40;102708.88;4978830;28;45405;-73
2023/11/23 05:21:29;;;;;;;;;6.67;5.00;;;;;22.74;44.61;102709.72;4979075;28;45289;-72
2023/11/23 05:23:55;;;;;;;;;2.00;2.00;;;;;22.66;44.60;102696.28;4978813;28;45467;-73
2023/11/23 05:26:20;;;;;;;;;2.00;2.00;;;;;22.72;44.81;102709.84;4978264;28;46010;-72
2023/11/23 05:28:45;;;;;;;;;5.33;4.00;;;;;22.65;44.61;102698.09;4978664;28;45168;-73
2023/11/23 05:31:11;;;;;;;;;6.00;6.00;;;;;22.72;44.40;102707.19;4977520;28;45286;-72
2023/11/23 05:33:37;;;;;;;;;4.00;4.00;;;;;22.72;44.33;102704.56;4978910;28;45300;-72
2023/11/23 05:36:03;;;;;;;;;4.00;4.00;;;;;22.72;44.42;102709.00;4978356;28;46042;-72
2023/11/23 05:38:29;;;;;;;;;5.00;4.00;;;;;22.72;44.65;102711.66;4978602;28;45442;-73
2023/11/23 05:40:54;;;;;;;;;5.00;5.00;;;;;22.67;44.90;102708.56;4978272;28;45299;-73
2023/11/23 05:43:21;;;;;;;;;5.33;5.00;;;;;22.62;44.69;102696.56;4978380;28;45824;-71
2023/11/23 05:45:46;;;;;;;;;4.00;4.00;;;;;22.69;44.85;102703.97;4993442;28;48474;-73
2023/11/23 05:48:11;;;;;;;;;8.00;5.00;;;;;22.60;44.61;102698.53;4978211;28;45371;-73
2023/11/23 05:50:37;;;;;;;;;3.00;3.00;;;;;22.68;44.78;102711.09;4978521;28;45301;-73
2023/11/23 05:53:03;;;;;;;;;6.33;5.33;;;;;22.69;44.43;102710.09;4978380;28;45537;-72
2023/11/23 05:55:28;;;;;;;;;6.00;6.00;;;;;22.71;44.41;102704.69;4977812;28;46426;-73
2023/11/23 05:57:53;;;;;;;;;6.00;6.00;;;;;22.55;44.70;102681.34;4978117;28;46147;-73
2023/11/23 06:00:19;;;;;;;;;1.67;1.67;;;;;22.67;44.45;102705.91;4978228;28;45464;-72
2023/11/23 06:02:45;;;;;;;;;5.33;5.33;;;;;22.72;44.38;102715.16;4978171;28;45618;-72
2023/11/23 06:05:10;;;;;;;;;6.00;5.33;;;;;22.59;44.55;102696.00;4977910;28;45955;-73
2023/11/23 06:07:35;;;;;;;;;4.33;3.33;;;;;22.57;44.36;102701.44;4992734;28;46034;-72
2023/11/23 06:10:04;;;;;;;;;7.33;6.00;;;;;22.70;44.47;102714.47;4978176;28;45424;-73
2023/11/23 06:12:29;;;;;;;;;5.00;5.00;;;;;22.74;44.61;102721.16;4977943;28;45419;-72
2023/11/23 06:14:56;;;;;;;;;3.00;3.00;;;;;22.74;44.67;102723.81;4977106;28;45310;-73
2023/11/23 06:17:21;;;;;;;;;5.67;5.00;;;;;22.76;44.21;102722.84;4977813;28;45413;-72
2023/11/23 06:19:47;;;;;;;;;5.00;4.00;;;;;22.73;44.49;102714.19;4977861;28;45886;-72
2023/11/23 06:22:13;;;;;;;;;5.00;3.67;;;;;22.69;44.51;102710.09;4977598;28;45458;-73
2023/11/23 06:24:39;;;;;;;;;4.33;4.33;;;;;22.72;44.29;102711.66;4977536;28;46328;-72
2023/11/23 06:27:05;;;;;;;;;3.33;3.33;;;;;22.67;44.45;102695.28;4977808;28;45413;-72
2023/11/23 06:29:31;;;;;;;;;3.00;3.00;;;;;22.73;44.87;102705.41;4977842;28;45278;-71
2023/11/23 06:31:56;;;;;;;;;8.67;5.67;;;;;22.77;44.78;102706.78;4977539;28;45411;-72
2023/11/23 06:34:22;;;;;;;;;5.00;5.00;;;;;22.79;45.05;102710.16;4977434;28;46244;-71
2023/11/23 06:36:49;;;;;;;;;4.00;3.67;;;;;22.80;44.96;102714.47;4970408;28;45362;-72
2023/11/23 06:39:23;;;;;;;;;4.00;4.00;;;;;22.82;44.86;102711.69;4988001;28;45311;-71
2023/11/23 06:41:50;;;;;;;;;3.67;3.67;;;;;22.82;45.08;102711.69;4980318;28;45568;-71
2023/11/23 06:44:16;;;;;;;;;6.00;5.00;;;;;22.79;44.98;102699.53;4984400;28;46460;-71
2023/11/23 06:46:42;;;;;;;;;4.00;4.00;;;;;22.85;45.42;102708.72;4985414;28;45536;-72
2023/11/23 06:49:07;;;;;;;;;4.33;2.67;;;;;22.80;45.55;102708.31;4979285;28;45432;-72
2023/11/23 06:51:32;;;;;;;;;4.00;4.00;;;;;22.84;45.39;102715.88;4988995;28;45512;-71
2023/11/23 06:53:58;;;;;;;;;4.67;4.67;;;;;22.87;45.01;102716.56;4986806;28;46297;-71
2023/11/23 06:56:23;;;;;;;;;5.00;4.67;;;;;22.87;45.59;102712.09;4985343;28;45385;-71
2023/11/23 06:58:48;;;;;;;;;4.67;3.00;;;;;22.88;45.72;102712.91;4979061;28;45425;-74
2023/11/23 07:01:17;;;;;;;;;3.33;2.00;;;;;22.88;45.55;102707.63;4976403;28;47332;-73
2023/11/23 07:03:43;;;;;;;;;4.67;4.67;;;;;22.87;45.38;102711.25;4976837;28;46131;-73
2023/11/23 07:06:08;;;;;;;;;5.00;5.00;;;;;22.78;45.45;102703.16;4976576;28;45392;-75
2023/11/23 07:08:34;;;;;;;;;5.00;5.00;;;;;22.88;45.60;102712.91;4977242;28;45467;-75
2023/11/23 07:11:00;;;;;;;;;4.67;4.00;;;;;22.58;44.98;102668.66;4977069;28;45422;-75
2023/11/23 07:13:26;;;;;;;;;6.67;5.33;;;;;22.84;45.00;102712.38;4976818;28;47198;-72
2023/11/23 07:15:52;;;;;;;;;5.00;5.00;;;;;22.87;44.97;102713.91;4975518;28;45461;-72
2023/11/23 07:18:18;;;;;;;;;4.00;4.00;;;;;22.76;45.76;102698.97;4976835;28;45351;-72
2023/11/23 07:20:43;;;;;;;;;3.67;2.33;;;;;22.87;45.06;102711.25;4976600;28;45415;-75
2023/11/23 07:23:09;;;;;;;;;3.33;3.33;;;;;22.83;45.27;102700.91;4976743;28;45991;-73
2023/11/23 07:25:41;;;;;;;;;3.67;3.67;;;;;22.88;45.07;102697.00;4976084;28;45312;-73
2023/11/23 07:28:09;;;;;;;;;2.67;2.67;;;;;22.90;45.22;102703.03;4977038;28;45704;-73
2023/11/23 07:30:36;;;;;;;;;4.00;4.00;;;;;22.89;45.08;102698.69;4976751;28;45525;-73
2023/11/23 07:33:02;;;;;;;;;6.33;5.00;;;;;22.78;45.25;102684.59;4976539;28;47339;-73
2023/11/23 07:35:28;;;;;;;;;3.33;3.00;;;;;22.87;45.22;102695.34;4976208;28;45361;-73
2023/11/23 07:37:53;;;;;;;;;5.00;5.00;;;;;22.85;45.45;102696.31;4976655;28;45451;-72
2023/11/23 07:40:19;;;;;;;;;5.00;4.00;;;;;22.78;45.49;102689.88;4976728;28;45227;-73
2023/11/23 07:42:44;;;;;;;;;5.00;5.00;;;;;22.83;45.47;102692.97;4975911;28;59260;-73
2023/11/23 07:45:09;;;;;;;;;3.00;3.00;;;;;22.84;45.27;102707.06;4976657;28;45484;-72
2023/11/23 07:47:35;;;;;;;;;6.00;5.33;;;;;22.65;45.17;102668.91;4976570;28;45369;-73
2023/11/23 07:50:00;;;;;;;;;6.00;4.67;;;;;22.83;45.24;102700.91;4976155;28;45397;-73
2023/11/23 07:52:26;;;;;;;;;5.00;5.00;;;;;22.83;44.88;102697.44;4976284;28;46503;-73
2023/11/23 07:54:52;;;;;;;;;4.00;4.00;;;;;22.52;45.32;102651.47;4976263;28;45428;-73
2023/11/23 07:57:19;;;;;;;;;4.00;4.00;;;;;22.72;45.55;102682.47;4976443;28;45572;-73
2023/11/23 07:59:44;;;;;;;;;5.00;5.00;;;;;22.83;45.00;102711.53;4976297;28;45378;-73
2023/11/23 08:02:09;;;;;;;;;5.00;4.00;;;;;22.82;45.54;102707.19;4976145;28;45291;-73
2023/11/23 08:04:35;;;;;;;;;4.00;4.00;;;;;22.68;45.52;102696.97;4975823;28;48329;-73
2023/11/23 08:07:00;;;;;;;;;4.00;4.00;;;;;22.83;45.00;102713.34;4976532;28;45366;-73
2023/11/23 08:09:26;;;;;;;;;5.00;4.00;;;;;22.79;45.18;102702.19;4976435;28;45356;-73
2023/11/23 08:11:52;;;;;;;;;5.00;3.67;;;;;22.72;45.11;102699.25;4974805;28;46470;-73
2023/11/23 08:14:18;;;;;;;;;4.00;4.00;;;;;22.77;45.58;102703.31;4975830;28;45414;-72
2023/11/23 08:16:44;;;;;;;;;5.33;4.67;;;;;22.80;44.82;102703.84;4976206;28;45438;-73
2023/11/23 08:19:09;;;;;;;;;6.33;4.00;;;;;22.73;45.26;102698.28;4956488;28;45474;-73
2023/11/23 08:21:37;;;;;;;;;5.33;4.00;;;;;22.79;45.41;102712.81;4956455;28;45887;-73
2023/11/23 08:24:02;;;;;;;;;3.00;3.00;;;;;22.76;45.30;102707.78;4956464;28;45400;-73
2023/11/23 08:26:28;;;;;;;;;6.00;4.00;;;;;22.77;45.03;102709.44;4956542;28;45413;-72
2023/11/23 08:28:53;;;;;;;;;4.00;3.00;;;;;22.74;45.10;102707.09;4956668;28;45456;-73
2023/11/23 08:31:19;;;;;;;;;4.00;4.00;;;;;22.74;45.31;102699.94;4956407;28;47081;-73
2023/11/23 08:33:45;;;;;;;;;5.33;3.33;;;;;22.62;45.28;102680.66;4956088;28;45495;-73
2023/11/23 08:36:11;;;;;;;;;3.67;3.67;;;;;22.79;45.13;102711.97;4956387;28;45476;-73
2023/11/23 08:38:37;;;;;;;;;5.00;5.00;;;;;22.55;45.23;102679.53;4959799;28;45369;-73
2023/11/23 08:41:02;;;;;;;;;4.33;4.33;;;;;22.78;44.87;102712.94;4959677;28;46184;-72
2023/11/23 08:43:27;;;;;;;;;6.00;4.00;;;;;22.77;45.18;102720.03;4978343;28;45323;-73
2023/11/23 08:45:53;;;;;;;;;3.00;3.00;;;;;22.67;45.42;102708.56;4979382;28;45210;-73
2023/11/23 08:48:22;;;;;;;;;4.00;4.00;;;;;22.67;45.50;102701.44;4979016;28;45191;-73
2023/11/23 08:50:48;;;;;;;;;4.67;4.67;;;;;22.35;45.03;102652.16;4979098;28;46108;-73
2023/11/23 08:53:15;;;;;;;;;1.33;1.33;;;;;22.77;45.36;102714.75;4979002;28;45466;-73
2023/11/23 08:55:40;;;;;;;;;3.00;3.00;;;;;22.78;44.79;102716.44;4978050;28;45366;-73
2023/11/23 08:58:05;;;;;;;;;3.67;3.67;;;;;22.72;45.46;102712.50;4979137;28;45460;-73
2023/11/23 09:00:32;;;;;;;;;6.33;6.33;;;;;22.74;45.10;102707.09;4978904;28;45367;-73
2023/11/23 09:02:58;;;;;;;;;4.33;4.33;;;;;22.81;45.49;102729.44;4978820;28;45421;-73
2023/11/23 09:05:23;;;;;;;;;4.00;4.00;;;;;22.82;45.48;102728.44;4978945;28;45454;-73
2023/11/23 09:07:48;;;;;;;;;4.67;3.00;;;;;22.81;44.96;102721.47;4979147;28;45402;-73
2023/11/23 09:10:19;;;;;;;;;3.33;3.33;;;;;22.80;45.00;102719.78;4978871;28;46523;-73
2023/11/23 09:12:44;;;;;;;;;4.67;3.33;;;;;22.74;45.51;102709.72;4978865;28;45456;-73
2023/11/23 09:15:10;;;;;;;;;3.00;3.00;;;;;22.74;45.20;102713.19;4978806;28;45341;-73
2023/11/23 09:17:36;;;;;;;;;3.33;3.33;;;;;22.71;44.92;102702.06;4978460;28;45328;-73
2023/11/23 09:20:04;;;;;;;;;3.00;3.00;;;;;22.62;45.45;102693.06;4978593;28;45259;-73
2023/11/23 09:22:31;;;;;;;;;4.67;4.67;;;;;22.79;45.27;102719.94;4978636;28;45390;-73
2023/11/23 09:24:57;;;;;;;;;6.67;5.00;;;;;22.78;44.82;102721.72;4978695;28;45349;-73
2023/11/23 09:27:22;;;;;;;;;3.67;3.00;;;;;22.67;44.94;102706.75;4976886;28;52021;-73
2023/11/23 09:29:48;;;;;;;;;4.00;4.00;;;;;22.49;45.33;102677.41;4978437;28;46815;-73
2023/11/23 09:32:13;;;;;;;;;4.00;4.00;;;;;22.70;45.25;102711.81;4978205;28;45305;-73
2023/11/23 09:34:40;;;;;;;;;6.00;3.67;;;;;22.61;45.07;102692.22;4978605;28;45362;-73
2023/11/23 09:37:06;;;;;;;;;5.00;3.67;;;;;22.67;45.42;102708.56;4978614;28;45532;-73
2023/11/23 09:39:34;;;;;;;;;4.00;4.00;;;;;22.67;45.34;102708.56;4978287;28;46819;-73
2023/11/23 09:42:03;;;;;;;;;4.67;3.00;;;;;22.74;45.30;102717.69;4978138;28;45466;-73
2023/11/23 09:44:29;;;;;;;;;4.00;4.00;;;;;22.74;44.99;102723.81;4978430;28;45413;-73
2023/11/23 09:46:56;;;;;;;;;4.00;4.00;;;;;22.60;45.58;102706.47;4978053;28;45343;-73
2023/11/23 09:49:22;;;;;;;;;5.00;4.33;;;;;22.51;45.07;102692.22;4977378;28;46377;-73
2023/11/23 09:51:52;;;;;;;;;4.00;3.33;;;;;22.78;45.49;102723.53;4978183;28;45389;-73
2023/11/23 09:54:21;;;;;;;;;3.00;3.00;;;;;22.72;45.11;102712.50;4978388;28;45326;-73
2023/11/23 09:56:47;;;;;;;;;4.00;4.00;;;;;22.77;45.37;102712.09;4978324;28;45565;-73
2023/11/23 09:59:12;;;;;;;;;1.33;1.33;;;;;22.67;45.17;102697.94;4978040;28;45437;-73
2023/11/23 10:01:43;;;;;;;;;4.00;3.00;;;;;22.72;44.83;102706.34;4977729;28;45362;-73
2023/11/23 10:04:08;;;;;;;;;3.67;3.67;;;;;22.78;44.87;102712.94;4978192;28;45407;-73
2023/11/23 10:06:34;;;;;;;;;3.00;3.00;;;;;22.79;45.46;102709.31;4977974;28;45322;-73
2023/11/23 10:08:59;;;;;;;;;4.00;3.67;;;;;22.80;45.11;102690.59;4978175;28;46140;-73
2023/11/23 10:11:28;;;;;;;;;4.00;2.00;;;;;22.80;44.66;102695.88;4978030;28;45367;-73
2023/11/23 10:13:54;;;;;;;;;3.00;3.00;;;;;22.74;45.00;102678.72;4977785;28;46400;-73
2023/11/23 10:16:19;;;;;;;;;5.00;3.00;;;;;22.80;45.05;102690.59;4976326;28;45279;-73
2023/11/23 10:18:45;;;;;;;;;4.00;3.00;;;;;22.80;44.78;102697.69;4977595;28;47035;-73
2023/11/23 10:21:11;;;;;;;;;2.00;2.00;;;;;22.67;44.91;102685.53;4977858;28;45383;-73
2023/11/23 10:23:40;;;;;;;;;4.00;3.67;;;;;22.61;44.83;102678.97;4978010;28;45290;-72
2023/11/23 10:26:09;;;;;;;;;4.00;4.00;;;;;22.72;45.09;102691.28;4977587;28;45358;-73
2023/11/23 10:28:38;;;;;;;;;5.33;3.33;;;;;22.79;44.91;102706.66;4977103;28;46379;-72
2023/11/23 10:31:04;;;;;;;;;3.33;3.33;;;;;22.77;45.04;102698.00;4977680;28;45883;-73
2023/11/23 10:33:33;;;;;;;;;4.33;4.00;;;;;22.79;45.29;102696.03;4992851;28;45759;-72
2023/11/23 10:36:04;;;;;;;;;2.33;2.00;;;;;22.54;44.88;102655.78;4977591;28;45421;-73
2023/11/23 10:38:35;;;;;;;;;3.00;3.00;;;;;22.64;45.23;102675.19;4977317;28;46540;-72
2023/11/23 10:41:01;;;;;;;;;3.00;3.00;;;;;22.77;44.82;102690.84;4977794;28;45537;-73
2023/11/23 10:43:26;;;;;;;;;4.00;4.00;;;;;22.78;44.90;102697.00;4977087;28;45418;-73
2023/11/23 10:45:53;;;;;;;;;4.33;3.00;;;;;22.71;45.05;102683.47;4977637;28;45424;-73
2023/11/23 10:48:23;;;;;;;;;2.33;2.33;;;;;22.36;45.36;102629.94;4977319;28;46413;-73
2023/11/23 10:50:50;;;;;;;;;4.00;3.00;;;;;22.77;44.81;102703.31;4977431;28;45362;-73
2023/11/23 10:53:15;;;;;;;;;3.67;3.67;;;;;22.72;45.07;102679.81;4977362;28;45321;-73
2023/11/23 10:55:41;;;;;;;;;4.00;3.33;;;;;22.68;44.79;102673.09;4977244;28;45544;-73
2023/11/23 10:58:12;;;;;;;;;3.33;3.33;;;;;22.57;44.75;102674.91;4976901;28;46093;-73
2023/11/23 11:00:39;;;;;;;;;3.33;3.33;;;;;22.77;45.21;102693.50;4976084;28;45390;-72
2023/11/23 11:03:08;;;;;;;;;3.00;3.00;;;;;22.77;45.23;102690.03;4977333;28;45488;-73
2023/11/23 11:05:45;;;;;;;;;4.00;3.00;;;;;22.78;44.82;102683.75;4977251;28;45451;-73
2023/11/23 11:08:16;;;;;;;;;3.00;3.00;;;;;22.74;44.97;102685.84;4977230;28;46383;-73
2023/11/23 11:10:50;;;;;;;;;4.00;4.00;;;;;22.78;44.80;102679.28;4977101;28;45390;-73
2023/11/23 11:13:18;;;;;;;;;3.00;2.00;;;;;22.77;45.15;102659.00;4976702;28;45353;-72
2023/11/23 11:15:57;;;;;;;;;5.33;4.00;;;;;22.63;45.12;102637.22;4977041;28;45567;-73
2023/11/23 11:18:27;;;;;;;;;4.00;3.00;;;;;22.65;44.97;102634.44;4976785;28;45314;-73